sensor_id;sensor_type;location;lat;lon;timestamp;P1;durP1;ratioP1;P2;durP2;ratioP2
8993;SDS011;4532;50.886;4.700;2023-02-15T00:01:24;49.13;;;31.47;;
8993;SDS011;4532;50.886;4.700;2023-02-15T00:03:53;52.43;;;29.67;;
8993;SDS011;4532;50.886;4.700;2023-02-15T00:06:21;47.43;;;29.37;;
8993;SDS011;4532;50.886;4.700;2023-02-15T00:08:49;51.87;;;31.43;;
8993;SDS011;4532;50.886;4.700;2023-02-15T00:11:17;54.83;;;30.03;;
8993;SDS011;4532;50.886;4.700;2023-02-15T00:14:04;47.23;;;29.90;;
8993;SDS011;4532;50.886;4.700;2023-02-15T00:16:33;47.60;;;30.57;;
8993;SDS011;4532;50.886;4.700;2023-02-15T00:19:03;45.40;;;28.23;;
8993;SDS011;4532;50.886;4.700;2023-02-15T00:21:32;45.27;;;28.83;;
8993;SDS011;4532;50.886;4.700;2023-02-15T00:24:01;50.77;;;30.67;;
8993;SDS011;4532;50.886;4.700;2023-02-15T00:26:34;44.80;;;28.93;;
8993;SDS011;4532;50.886;4.700;2023-02-15T00:29:05;46.93;;;29.60;;
8993;SDS011;4532;50.886;4.700;2023-02-15T00:31:35;48.60;;;29.97;;
8993;SDS011;4532;50.886;4.700;2023-02-15T00:34:03;51.03;;;30.87;;
8993;SDS011;4532;50.886;4.700;2023-02-15T00:36:36;47.77;;;29.50;;
8993;SDS011;4532;50.886;4.700;2023-02-15T00:39:04;45.60;;;29.43;;
8993;SDS011;4532;50.886;4.700;2023-02-15T00:41:31;47.87;;;30.57;;
8993;SDS011;4532;50.886;4.700;2023-02-15T00:44:02;46.87;;;29.27;;
8993;SDS011;4532;50.886;4.700;2023-02-15T00:46:30;51.30;;;30.43;;
8993;SDS011;4532;50.886;4.700;2023-02-15T00:49:00;47.10;;;29.33;;
8993;SDS011;4532;50.886;4.700;2023-02-15T00:51:29;46.13;;;29.17;;
8993;SDS011;4532;50.886;4.700;2023-02-15T00:53:57;46.47;;;29.10;;
8993;SDS011;4532;50.886;4.700;2023-02-15T00:56:25;45.27;;;29.20;;
8993;SDS011;4532;50.886;4.700;2023-02-15T00:58:52;45.97;;;29.37;;
8993;SDS011;4532;50.886;4.700;2023-02-15T01:01:21;49.27;;;29.70;;
8993;SDS011;4532;50.886;4.700;2023-02-15T01:03:51;45.50;;;29.40;;
8993;SDS011;4532;50.886;4.700;2023-02-15T01:06:20;48.20;;;29.17;;
8993;SDS011;4532;50.886;4.700;2023-02-15T01:08:50;44.30;;;28.40;;
8993;SDS011;4532;50.886;4.700;2023-02-15T01:11:19;45.33;;;28.43;;
8993;SDS011;4532;50.886;4.700;2023-02-15T01:13:51;44.53;;;28.87;;
8993;SDS011;4532;50.886;4.700;2023-02-15T01:16:23;44.77;;;29.00;;
8993;SDS011;4532;50.886;4.700;2023-02-15T01:18:54;48.07;;;29.27;;
8993;SDS011;4532;50.886;4.700;2023-02-15T01:21:22;46.73;;;29.00;;
8993;SDS011;4532;50.886;4.700;2023-02-15T01:23:55;42.40;;;28.67;;
8993;SDS011;4532;50.886;4.700;2023-02-15T01:26:22;43.40;;;28.97;;
8993;SDS011;4532;50.886;4.700;2023-02-15T01:28:49;45.87;;;27.87;;
8993;SDS011;4532;50.886;4.700;2023-02-15T01:31:21;44.20;;;28.00;;
8993;SDS011;4532;50.886;4.700;2023-02-15T01:33:50;43.80;;;28.27;;
8993;SDS011;4532;50.886;4.700;2023-02-15T01:36:20;42.77;;;27.97;;
8993;SDS011;4532;50.886;4.700;2023-02-15T01:38:52;43.60;;;28.40;;
8993;SDS011;4532;50.886;4.700;2023-02-15T01:41:19;42.30;;;27.37;;
8993;SDS011;4532;50.886;4.700;2023-02-15T01:43:51;41.47;;;26.97;;
8993;SDS011;4532;50.886;4.700;2023-02-15T01:46:24;46.70;;;28.33;;
8993;SDS011;4532;50.886;4.700;2023-02-15T01:49:17;44.13;;;29.03;;
8993;SDS011;4532;50.886;4.700;2023-02-15T01:51:50;43.00;;;27.67;;
8993;SDS011;4532;50.886;4.700;2023-02-15T01:54:29;43.80;;;28.83;;
8993;SDS011;4532;50.886;4.700;2023-02-15T01:57:03;42.97;;;27.47;;
8993;SDS011;4532;50.886;4.700;2023-02-15T01:59:42;47.97;;;29.43;;
8993;SDS011;4532;50.886;4.700;2023-02-15T02:02:15;47.60;;;29.77;;
8993;SDS011;4532;50.886;4.700;2023-02-15T02:07:21;47.70;;;27.87;;
8993;SDS011;4532;50.886;4.700;2023-02-15T02:09:53;43.50;;;28.47;;
8993;SDS011;4532;50.886;4.700;2023-02-15T02:12:22;47.90;;;28.03;;
8993;SDS011;4532;50.886;4.700;2023-02-15T02:14:55;48.27;;;28.50;;
8993;SDS011;4532;50.886;4.700;2023-02-15T02:34:32;42.53;;;27.90;;
8993;SDS011;4532;50.886;4.700;2023-02-15T02:47:45;45.63;;;27.50;;
8993;SDS011;4532;50.886;4.700;2023-02-15T02:50:23;47.33;;;29.23;;
8993;SDS011;4532;50.886;4.700;2023-02-15T02:52:53;45.73;;;27.97;;
8993;SDS011;4532;50.886;4.700;2023-02-15T02:55:32;42.23;;;29.20;;
8993;SDS011;4532;50.886;4.700;2023-02-15T03:01:01;46.60;;;29.70;;
8993;SDS011;4532;50.886;4.700;2023-02-15T03:06:10;44.43;;;29.20;;
8993;SDS011;4532;50.886;4.700;2023-02-15T03:09:29;42.80;;;27.70;;
8993;SDS011;4532;50.886;4.700;2023-02-15T03:11:43;44.33;;;28.57;;
8993;SDS011;4532;50.886;4.700;2023-02-15T03:14:12;40.90;;;27.57;;
8993;SDS011;4532;50.886;4.700;2023-02-15T03:16:41;46.40;;;30.33;;
8993;SDS011;4532;50.886;4.700;2023-02-15T03:19:19;45.97;;;29.30;;
8993;SDS011;4532;50.886;4.700;2023-02-15T03:21:56;45.40;;;28.87;;
8993;SDS011;4532;50.886;4.700;2023-02-15T03:24:36;41.93;;;28.60;;
8993;SDS011;4532;50.886;4.700;2023-02-15T03:27:17;46.47;;;29.07;;
8993;SDS011;4532;50.886;4.700;2023-02-15T03:29:52;42.37;;;27.43;;
8993;SDS011;4532;50.886;4.700;2023-02-15T03:32:25;45.73;;;29.87;;
8993;SDS011;4532;50.886;4.700;2023-02-15T03:34:59;41.70;;;27.60;;
8993;SDS011;4532;50.886;4.700;2023-02-15T03:37:28;44.37;;;28.20;;
8993;SDS011;4532;50.886;4.700;2023-02-15T03:40:08;41.77;;;28.17;;
8993;SDS011;4532;50.886;4.700;2023-02-15T03:43:04;43.83;;;27.83;;
8993;SDS011;4532;50.886;4.700;2023-02-15T03:45:44;44.07;;;29.13;;
8993;SDS011;4532;50.886;4.700;2023-02-15T03:48:22;44.50;;;28.43;;
8993;SDS011;4532;50.886;4.700;2023-02-15T03:50:56;43.87;;;28.33;;
8993;SDS011;4532;50.886;4.700;2023-02-15T03:53:48;44.27;;;28.67;;
8993;SDS011;4532;50.886;4.700;2023-02-15T03:56:21;44.43;;;28.73;;
8993;SDS011;4532;50.886;4.700;2023-02-15T03:58:48;44.53;;;27.80;;
8993;SDS011;4532;50.886;4.700;2023-02-15T04:01:38;47.60;;;29.50;;
8993;SDS011;4532;50.886;4.700;2023-02-15T04:07:03;44.43;;;28.90;;
8993;SDS011;4532;50.886;4.700;2023-02-15T04:09:35;46.60;;;28.37;;
8993;SDS011;4532;50.886;4.700;2023-02-15T04:12:21;40.13;;;27.60;;
8993;SDS011;4532;50.886;4.700;2023-02-15T04:14:48;41.83;;;26.40;;
8993;SDS011;4532;50.886;4.700;2023-02-15T04:17:37;44.30;;;28.93;;
8993;SDS011;4532;50.886;4.700;2023-02-15T04:20:07;47.93;;;29.13;;
8993;SDS011;4532;50.886;4.700;2023-02-15T04:22:54;43.47;;;28.00;;
8993;SDS011;4532;50.886;4.700;2023-02-15T04:25:39;47.00;;;28.73;;
8993;SDS011;4532;50.886;4.700;2023-02-15T04:28:08;43.60;;;27.97;;
8993;SDS011;4532;50.886;4.700;2023-02-15T04:30:38;44.37;;;27.80;;
8993;SDS011;4532;50.886;4.700;2023-02-15T04:33:05;44.77;;;28.23;;
8993;SDS011;4532;50.886;4.700;2023-02-15T04:35:32;46.20;;;28.87;;
8993;SDS011;4532;50.886;4.700;2023-02-15T04:38:00;48.83;;;27.97;;
8993;SDS011;4532;50.886;4.700;2023-02-15T04:40:29;44.07;;;27.87;;
8993;SDS011;4532;50.886;4.700;2023-02-15T04:42:56;38.10;;;25.70;;
8993;SDS011;4532;50.886;4.700;2023-02-15T04:45:23;43.70;;;28.23;;
8993;SDS011;4532;50.886;4.700;2023-02-15T04:47:53;45.00;;;28.67;;
8993;SDS011;4532;50.886;4.700;2023-02-15T04:50:20;47.30;;;28.67;;
8993;SDS011;4532;50.886;4.700;2023-02-15T04:52:49;44.70;;;28.77;;
8993;SDS011;4532;50.886;4.700;2023-02-15T04:55:16;45.27;;;28.40;;
8993;SDS011;4532;50.886;4.700;2023-02-15T04:57:44;41.73;;;26.90;;
8993;SDS011;4532;50.886;4.700;2023-02-15T05:00:14;40.23;;;27.67;;
8993;SDS011;4532;50.886;4.700;2023-02-15T05:02:46;41.60;;;26.67;;
8993;SDS011;4532;50.886;4.700;2023-02-15T05:05:14;44.30;;;28.10;;
8993;SDS011;4532;50.886;4.700;2023-02-15T05:07:41;46.50;;;27.53;;
8993;SDS011;4532;50.886;4.700;2023-02-15T05:10:13;46.20;;;27.70;;
8993;SDS011;4532;50.886;4.700;2023-02-15T05:12:44;42.03;;;26.57;;
8993;SDS011;4532;50.886;4.700;2023-02-15T05:15:11;47.30;;;27.47;;
8993;SDS011;4532;50.886;4.700;2023-02-15T05:17:40;43.80;;;26.83;;
8993;SDS011;4532;50.886;4.700;2023-02-15T05:20:12;39.83;;;26.33;;
8993;SDS011;4532;50.886;4.700;2023-02-15T05:22:39;43.77;;;29.07;;
8993;SDS011;4532;50.886;4.700;2023-02-15T05:25:08;44.47;;;27.07;;
8993;SDS011;4532;50.886;4.700;2023-02-15T05:27:56;42.60;;;28.07;;
8993;SDS011;4532;50.886;4.700;2023-02-15T05:30:44;43.97;;;27.83;;
8993;SDS011;4532;50.886;4.700;2023-02-15T05:33:12;46.60;;;28.70;;
8993;SDS011;4532;50.886;4.700;2023-02-15T05:35:44;42.57;;;27.43;;
8993;SDS011;4532;50.886;4.700;2023-02-15T05:38:11;47.87;;;29.07;;
8993;SDS011;4532;50.886;4.700;2023-02-15T05:40:38;47.43;;;29.03;;
8993;SDS011;4532;50.886;4.700;2023-02-15T05:43:05;43.73;;;28.43;;
8993;SDS011;4532;50.886;4.700;2023-02-15T05:45:35;45.83;;;27.60;;
8993;SDS011;4532;50.886;4.700;2023-02-15T05:48:05;47.17;;;29.67;;
8993;SDS011;4532;50.886;4.700;2023-02-15T05:50:35;44.60;;;27.87;;
8993;SDS011;4532;50.886;4.700;2023-02-15T05:53:02;45.10;;;28.90;;
8993;SDS011;4532;50.886;4.700;2023-02-15T05:55:29;46.50;;;28.53;;
8993;SDS011;4532;50.886;4.700;2023-02-15T05:57:56;43.43;;;27.77;;
8993;SDS011;4532;50.886;4.700;2023-02-15T06:00:25;42.87;;;28.23;;
8993;SDS011;4532;50.886;4.700;2023-02-15T06:02:53;49.37;;;28.90;;
8993;SDS011;4532;50.886;4.700;2023-02-15T06:05:20;44.30;;;29.67;;
8993;SDS011;4532;50.886;4.700;2023-02-15T06:07:47;46.43;;;28.93;;
8993;SDS011;4532;50.886;4.700;2023-02-15T06:10:14;42.27;;;28.30;;
8993;SDS011;4532;50.886;4.700;2023-02-15T06:12:41;45.83;;;28.57;;
8993;SDS011;4532;50.886;4.700;2023-02-15T06:15:13;47.47;;;29.40;;
8993;SDS011;4532;50.886;4.700;2023-02-15T06:17:43;45.70;;;29.13;;
8993;SDS011;4532;50.886;4.700;2023-02-15T06:20:10;47.10;;;29.40;;
8993;SDS011;4532;50.886;4.700;2023-02-15T06:22:40;45.87;;;29.73;;
8993;SDS011;4532;50.886;4.700;2023-02-15T06:25:07;46.87;;;29.20;;
8993;SDS011;4532;50.886;4.700;2023-02-15T06:27:36;45.00;;;28.80;;
8993;SDS011;4532;50.886;4.700;2023-02-15T06:30:06;43.93;;;27.83;;
8993;SDS011;4532;50.886;4.700;2023-02-15T06:32:37;48.93;;;27.67;;
8993;SDS011;4532;50.886;4.700;2023-02-15T06:35:04;46.57;;;29.10;;
8993;SDS011;4532;50.886;4.700;2023-02-15T06:37:35;45.50;;;28.30;;
8993;SDS011;4532;50.886;4.700;2023-02-15T06:40:05;43.80;;;28.87;;
8993;SDS011;4532;50.886;4.700;2023-02-15T06:42:36;43.47;;;27.83;;
8993;SDS011;4532;50.886;4.700;2023-02-15T06:45:03;47.20;;;29.53;;
8993;SDS011;4532;50.886;4.700;2023-02-15T06:47:34;47.43;;;29.80;;
8993;SDS011;4532;50.886;4.700;2023-02-15T06:50:04;48.27;;;29.27;;
8993;SDS011;4532;50.886;4.700;2023-02-15T06:52:36;55.33;;;29.83;;
8993;SDS011;4532;50.886;4.700;2023-02-15T06:55:04;54.87;;;29.57;;
8993;SDS011;4532;50.886;4.700;2023-02-15T06:57:32;50.87;;;28.43;;
8993;SDS011;4532;50.886;4.700;2023-02-15T07:00:00;47.70;;;29.13;;
8993;SDS011;4532;50.886;4.700;2023-02-15T07:02:33;51.60;;;28.60;;
8993;SDS011;4532;50.886;4.700;2023-02-15T07:05:05;49.37;;;29.57;;
8993;SDS011;4532;50.886;4.700;2023-02-15T07:07:35;57.67;;;30.33;;
8993;SDS011;4532;50.886;4.700;2023-02-15T07:10:02;47.50;;;29.90;;
8993;SDS011;4532;50.886;4.700;2023-02-15T07:12:30;47.20;;;28.57;;
8993;SDS011;4532;50.886;4.700;2023-02-15T07:15:14;53.83;;;28.87;;
8993;SDS011;4532;50.886;4.700;2023-02-15T07:17:42;51.80;;;29.23;;
8993;SDS011;4532;50.886;4.700;2023-02-15T07:20:17;51.47;;;29.47;;
8993;SDS011;4532;50.886;4.700;2023-02-15T07:22:49;53.30;;;29.73;;
8993;SDS011;4532;50.886;4.700;2023-02-15T07:25:19;51.37;;;29.43;;
8993;SDS011;4532;50.886;4.700;2023-02-15T07:27:50;46.60;;;28.17;;
8993;SDS011;4532;50.886;4.700;2023-02-15T07:30:28;46.73;;;30.17;;
8993;SDS011;4532;50.886;4.700;2023-02-15T07:32:56;58.00;;;30.80;;
8993;SDS011;4532;50.886;4.700;2023-02-15T07:35:49;69.57;;;31.77;;
8993;SDS011;4532;50.886;4.700;2023-02-15T07:38:23;66.00;;;32.43;;
8993;SDS011;4532;50.886;4.700;2023-02-15T07:40:59;54.50;;;31.77;;
8993;SDS011;4532;50.886;4.700;2023-02-15T07:43:28;48.37;;;29.00;;
8993;SDS011;4532;50.886;4.700;2023-02-15T07:46:06;53.27;;;30.90;;
8993;SDS011;4532;50.886;4.700;2023-02-15T07:48:35;52.47;;;29.70;;
8993;SDS011;4532;50.886;4.700;2023-02-15T07:51:08;51.53;;;29.60;;
8993;SDS011;4532;50.886;4.700;2023-02-15T07:53:37;53.33;;;29.43;;
8993;SDS011;4532;50.886;4.700;2023-02-15T07:56:06;55.37;;;29.70;;
8993;SDS011;4532;50.886;4.700;2023-02-15T07:58:39;51.63;;;28.50;;
8993;SDS011;4532;50.886;4.700;2023-02-15T08:03:53;45.07;;;28.63;;
8993;SDS011;4532;50.886;4.700;2023-02-15T08:06:23;45.93;;;27.73;;
8993;SDS011;4532;50.886;4.700;2023-02-15T08:08:51;48.87;;;29.03;;
8993;SDS011;4532;50.886;4.700;2023-02-15T08:11:29;46.93;;;28.47;;
8993;SDS011;4532;50.886;4.700;2023-02-15T08:16:53;56.13;;;28.80;;
8993;SDS011;4532;50.886;4.700;2023-02-15T08:19:26;61.20;;;29.27;;
8993;SDS011;4532;50.886;4.700;2023-02-15T08:24:30;64.00;;;30.53;;
8993;SDS011;4532;50.886;4.700;2023-02-15T08:27:04;48.63;;;29.50;;
8993;SDS011;4532;50.886;4.700;2023-02-15T08:29:35;57.00;;;29.30;;
8993;SDS011;4532;50.886;4.700;2023-02-15T08:32:05;61.53;;;30.90;;
8993;SDS011;4532;50.886;4.700;2023-02-15T08:34:38;54.77;;;29.33;;
8993;SDS011;4532;50.886;4.700;2023-02-15T08:37:07;51.73;;;29.17;;
8993;SDS011;4532;50.886;4.700;2023-02-15T08:39:34;49.47;;;28.73;;
8993;SDS011;4532;50.886;4.700;2023-02-15T08:42:03;54.63;;;29.17;;
8993;SDS011;4532;50.886;4.700;2023-02-15T08:44:31;48.90;;;28.67;;
8993;SDS011;4532;50.886;4.700;2023-02-15T08:46:58;49.07;;;29.03;;
8993;SDS011;4532;50.886;4.700;2023-02-15T08:49:30;46.60;;;29.17;;
8993;SDS011;4532;50.886;4.700;2023-02-15T08:51:57;46.40;;;29.20;;
8993;SDS011;4532;50.886;4.700;2023-02-15T08:54:31;49.67;;;29.07;;
8993;SDS011;4532;50.886;4.700;2023-02-15T08:57:00;63.17;;;31.27;;
8993;SDS011;4532;50.886;4.700;2023-02-15T08:59:27;61.17;;;31.60;;
8993;SDS011;4532;50.886;4.700;2023-02-15T09:01:57;49.73;;;29.27;;
8993;SDS011;4532;50.886;4.700;2023-02-15T09:04:24;59.17;;;30.77;;
8993;SDS011;4532;50.886;4.700;2023-02-15T09:06:52;56.47;;;31.17;;
8993;SDS011;4532;50.886;4.700;2023-02-15T09:09:19;57.00;;;32.80;;
8993;SDS011;4532;50.886;4.700;2023-02-15T09:11:49;63.80;;;32.50;;
8993;SDS011;4532;50.886;4.700;2023-02-15T09:14:24;55.83;;;31.13;;
8993;SDS011;4532;50.886;4.700;2023-02-15T09:16:53;47.60;;;28.23;;
8993;SDS011;4532;50.886;4.700;2023-02-15T09:19:21;50.43;;;30.47;;
8993;SDS011;4532;50.886;4.700;2023-02-15T09:21:51;51.60;;;31.47;;
8993;SDS011;4532;50.886;4.700;2023-02-15T09:24:18;52.00;;;31.87;;
8993;SDS011;4532;50.886;4.700;2023-02-15T09:26:46;48.33;;;30.47;;
8993;SDS011;4532;50.886;4.700;2023-02-15T09:29:17;50.23;;;30.70;;
8993;SDS011;4532;50.886;4.700;2023-02-15T09:31:49;46.07;;;30.23;;
8993;SDS011;4532;50.886;4.700;2023-02-15T09:34:18;45.40;;;30.40;;
8993;SDS011;4532;50.886;4.700;2023-02-15T09:36:52;52.50;;;30.27;;
8993;SDS011;4532;50.886;4.700;2023-02-15T09:39:22;46.07;;;29.57;;
8993;SDS011;4532;50.886;4.700;2023-02-15T09:56:24;46.30;;;29.10;;
8993;SDS011;4532;50.886;4.700;2023-02-15T10:02:01;47.47;;;27.67;;
8993;SDS011;4532;50.886;4.700;2023-02-15T10:16:26;42.13;;;27.43;;
8993;SDS011;4532;50.886;4.700;2023-02-15T10:22:03;39.83;;;25.27;;
8993;SDS011;4532;50.886;4.700;2023-02-15T10:24:49;39.50;;;25.57;;
8993;SDS011;4532;50.886;4.700;2023-02-15T10:27:20;37.80;;;24.50;;
8993;SDS011;4532;50.886;4.700;2023-02-15T10:35:18;43.57;;;24.87;;
8993;SDS011;4532;50.886;4.700;2023-02-15T11:00:46;36.50;;;24.50;;
8993;SDS011;4532;50.886;4.700;2023-02-15T11:08:35;38.73;;;24.30;;
8993;SDS011;4532;50.886;4.700;2023-02-15T11:11:07;38.23;;;24.47;;
8993;SDS011;4532;50.886;4.700;2023-02-15T11:13:43;37.87;;;24.53;;
8993;SDS011;4532;50.886;4.700;2023-02-15T11:16:16;41.47;;;25.20;;
8993;SDS011;4532;50.886;4.700;2023-02-15T11:21:27;38.20;;;24.83;;
8993;SDS011;4532;50.886;4.700;2023-02-15T11:23:59;38.47;;;23.53;;
8993;SDS011;4532;50.886;4.700;2023-02-15T11:32:29;34.23;;;21.93;;
8993;SDS011;4532;50.886;4.700;2023-02-15T11:37:37;33.60;;;23.13;;
8993;SDS011;4532;50.886;4.700;2023-02-15T11:40:13;74.17;;;29.30;;
8993;SDS011;4532;50.886;4.700;2023-02-15T11:42:58;42.90;;;24.40;;
8993;SDS011;4532;50.886;4.700;2023-02-15T11:45:32;39.90;;;24.03;;
8993;SDS011;4532;50.886;4.700;2023-02-15T11:48:08;38.70;;;23.03;;
8993;SDS011;4532;50.886;4.700;2023-02-15T11:50:39;36.77;;;23.53;;
8993;SDS011;4532;50.886;4.700;2023-02-15T11:53:12;32.53;;;22.60;;
8993;SDS011;4532;50.886;4.700;2023-02-15T11:55:45;34.20;;;22.80;;
8993;SDS011;4532;50.886;4.700;2023-02-15T12:00:47;39.07;;;22.40;;
8993;SDS011;4532;50.886;4.700;2023-02-15T12:06:03;37.70;;;22.03;;
8993;SDS011;4532;50.886;4.700;2023-02-15T12:08:39;33.93;;;21.53;;
8993;SDS011;4532;50.886;4.700;2023-02-15T12:11:15;34.83;;;22.30;;
8993;SDS011;4532;50.886;4.700;2023-02-15T12:13:55;35.20;;;20.90;;
8993;SDS011;4532;50.886;4.700;2023-02-15T12:16:22;37.57;;;23.27;;
8993;SDS011;4532;50.886;4.700;2023-02-15T12:18:53;35.27;;;23.13;;
8993;SDS011;4532;50.886;4.700;2023-02-15T12:21:34;36.27;;;22.83;;
8993;SDS011;4532;50.886;4.700;2023-02-15T12:24:17;32.67;;;21.17;;
8993;SDS011;4532;50.886;4.700;2023-02-15T12:26:56;36.60;;;22.93;;
8993;SDS011;4532;50.886;4.700;2023-02-15T12:29:25;39.87;;;22.40;;
8993;SDS011;4532;50.886;4.700;2023-02-15T12:31:55;39.57;;;23.07;;
8993;SDS011;4532;50.886;4.700;2023-02-15T12:34:32;40.43;;;23.37;;
8993;SDS011;4532;50.886;4.700;2023-02-15T12:37:10;37.17;;;22.17;;
8993;SDS011;4532;50.886;4.700;2023-02-15T12:39:56;39.03;;;24.13;;
8993;SDS011;4532;50.886;4.700;2023-02-15T12:42:40;41.60;;;23.57;;
8993;SDS011;4532;50.886;4.700;2023-02-15T12:50:51;37.43;;;22.43;;
8993;SDS011;4532;50.886;4.700;2023-02-15T12:53:36;36.87;;;22.20;;
8993;SDS011;4532;50.886;4.700;2023-02-15T12:56:05;33.37;;;22.63;;
8993;SDS011;4532;50.886;4.700;2023-02-15T12:58:39;32.83;;;22.40;;
8993;SDS011;4532;50.886;4.700;2023-02-15T13:01:18;32.47;;;21.93;;
8993;SDS011;4532;50.886;4.700;2023-02-15T13:06:34;34.87;;;23.17;;
8993;SDS011;4532;50.886;4.700;2023-02-15T13:09:11;34.77;;;23.20;;
8993;SDS011;4532;50.886;4.700;2023-02-15T13:11:50;36.50;;;22.40;;
8993;SDS011;4532;50.886;4.700;2023-02-15T13:14:18;34.57;;;23.10;;
8993;SDS011;4532;50.886;4.700;2023-02-15T13:16:47;41.60;;;25.30;;
8993;SDS011;4532;50.886;4.700;2023-02-15T13:19:22;40.07;;;25.00;;
8993;SDS011;4532;50.886;4.700;2023-02-15T13:22:08;36.33;;;22.57;;
8993;SDS011;4532;50.886;4.700;2023-02-15T13:24:47;35.03;;;23.77;;
8993;SDS011;4532;50.886;4.700;2023-02-15T13:27:21;36.77;;;22.93;;
8993;SDS011;4532;50.886;4.700;2023-02-15T13:29:53;36.37;;;22.83;;
8993;SDS011;4532;50.886;4.700;2023-02-15T13:34:59;38.33;;;23.90;;
8993;SDS011;4532;50.886;4.700;2023-02-15T13:37:37;34.00;;;23.10;;
8993;SDS011;4532;50.886;4.700;2023-02-15T13:43:46;35.30;;;22.87;;
8993;SDS011;4532;50.886;4.700;2023-02-15T13:57:23;35.30;;;23.53;;
8993;SDS011;4532;50.886;4.700;2023-02-15T14:11:19;35.87;;;24.93;;
8993;SDS011;4532;50.886;4.700;2023-02-15T14:14:30;36.57;;;22.83;;
8993;SDS011;4532;50.886;4.700;2023-02-15T14:20:02;34.33;;;23.43;;
8993;SDS011;4532;50.886;4.700;2023-02-15T14:22:45;37.70;;;22.83;;
8993;SDS011;4532;50.886;4.700;2023-02-15T14:25:29;38.70;;;25.37;;
8993;SDS011;4532;50.886;4.700;2023-02-15T14:30:42;44.53;;;25.00;;
8993;SDS011;4532;50.886;4.700;2023-02-15T14:36:07;36.30;;;23.67;;
8993;SDS011;4532;50.886;4.700;2023-02-15T14:42:05;34.43;;;23.00;;
8993;SDS011;4532;50.886;4.700;2023-02-15T14:44:41;38.67;;;23.73;;
8993;SDS011;4532;50.886;4.700;2023-02-15T14:53:17;34.20;;;23.00;;
8993;SDS011;4532;50.886;4.700;2023-02-15T15:01:16;37.00;;;23.80;;
8993;SDS011;4532;50.886;4.700;2023-02-15T15:04:22;34.27;;;23.03;;
8993;SDS011;4532;50.886;4.700;2023-02-15T15:07:37;34.30;;;22.83;;
8993;SDS011;4532;50.886;4.700;2023-02-15T15:12:45;43.13;;;26.33;;
8993;SDS011;4532;50.886;4.700;2023-02-15T15:18:08;38.30;;;26.63;;
8993;SDS011;4532;50.886;4.700;2023-02-15T15:20:46;37.20;;;25.27;;
8993;SDS011;4532;50.886;4.700;2023-02-15T15:25:50;36.87;;;24.00;;
8993;SDS011;4532;50.886;4.700;2023-02-15T15:29:07;39.93;;;26.77;;
8993;SDS011;4532;50.886;4.700;2023-02-15T15:39:10;37.43;;;25.57;;
8993;SDS011;4532;50.886;4.700;2023-02-15T15:50:53;37.30;;;24.00;;
8993;SDS011;4532;50.886;4.700;2023-02-15T15:53:26;33.77;;;23.70;;
8993;SDS011;4532;50.886;4.700;2023-02-15T15:56:02;34.33;;;22.40;;
8993;SDS011;4532;50.886;4.700;2023-02-15T15:58:32;33.30;;;22.87;;
8993;SDS011;4532;50.886;4.700;2023-02-15T16:05:18;35.70;;;23.77;;
8993;SDS011;4532;50.886;4.700;2023-02-15T16:07:46;34.03;;;23.37;;
8993;SDS011;4532;50.886;4.700;2023-02-15T16:10:23;30.67;;;21.67;;
8993;SDS011;4532;50.886;4.700;2023-02-15T16:12:55;36.27;;;22.90;;
8993;SDS011;4532;50.886;4.700;2023-02-15T16:15:26;36.20;;;25.07;;
8993;SDS011;4532;50.886;4.700;2023-02-15T16:18:16;38.60;;;24.50;;
8993;SDS011;4532;50.886;4.700;2023-02-15T16:20:52;34.20;;;23.27;;
8993;SDS011;4532;50.886;4.700;2023-02-15T16:28:39;36.80;;;24.50;;
8993;SDS011;4532;50.886;4.700;2023-02-15T16:31:14;33.77;;;23.93;;
8993;SDS011;4532;50.886;4.700;2023-02-15T16:33:45;35.00;;;24.63;;
8993;SDS011;4532;50.886;4.700;2023-02-15T16:36:23;38.50;;;25.87;;
8993;SDS011;4532;50.886;4.700;2023-02-15T16:41:21;38.10;;;24.97;;
8993;SDS011;4532;50.886;4.700;2023-02-15T16:44:04;36.87;;;26.57;;
8993;SDS011;4532;50.886;4.700;2023-02-15T16:46:42;37.57;;;26.03;;
8993;SDS011;4532;50.886;4.700;2023-02-15T16:49:22;36.93;;;25.73;;
8993;SDS011;4532;50.886;4.700;2023-02-15T16:51:55;39.07;;;26.60;;
8993;SDS011;4532;50.886;4.700;2023-02-15T16:54:30;38.90;;;26.13;;
8993;SDS011;4532;50.886;4.700;2023-02-15T16:56:58;39.80;;;25.03;;
8993;SDS011;4532;50.886;4.700;2023-02-15T16:59:33;37.30;;;25.60;;
8993;SDS011;4532;50.886;4.700;2023-02-15T17:02:04;37.57;;;25.60;;
8993;SDS011;4532;50.886;4.700;2023-02-15T17:04:38;39.90;;;27.00;;
8993;SDS011;4532;50.886;4.700;2023-02-15T17:07:14;38.20;;;27.10;;
8993;SDS011;4532;50.886;4.700;2023-02-15T17:09:51;38.67;;;26.70;;
8993;SDS011;4532;50.886;4.700;2023-02-15T17:12:53;39.60;;;27.43;;
8993;SDS011;4532;50.886;4.700;2023-02-15T17:18:06;41.67;;;28.47;;
8993;SDS011;4532;50.886;4.700;2023-02-15T17:20:45;43.00;;;28.20;;
8993;SDS011;4532;50.886;4.700;2023-02-15T17:25:50;42.73;;;28.27;;
8993;SDS011;4532;50.886;4.700;2023-02-15T17:28:22;43.03;;;28.97;;
8993;SDS011;4532;50.886;4.700;2023-02-15T17:30:54;45.73;;;29.23;;
8993;SDS011;4532;50.886;4.700;2023-02-15T17:36:14;44.50;;;29.47;;
8993;SDS011;4532;50.886;4.700;2023-02-15T17:39:17;42.43;;;29.43;;
8993;SDS011;4532;50.886;4.700;2023-02-15T17:41:47;42.97;;;28.93;;
8993;SDS011;4532;50.886;4.700;2023-02-15T17:44:16;44.33;;;30.50;;
8993;SDS011;4532;50.886;4.700;2023-02-15T17:46:50;44.60;;;30.83;;
8993;SDS011;4532;50.886;4.700;2023-02-15T17:49:25;44.73;;;29.13;;
8993;SDS011;4532;50.886;4.700;2023-02-15T17:52:03;44.63;;;29.53;;
8993;SDS011;4532;50.886;4.700;2023-02-15T17:54:33;44.03;;;30.33;;
8993;SDS011;4532;50.886;4.700;2023-02-15T17:57:19;46.83;;;30.10;;
8993;SDS011;4532;50.886;4.700;2023-02-15T17:59:48;44.57;;;29.47;;
8993;SDS011;4532;50.886;4.700;2023-02-15T18:02:34;45.07;;;31.40;;
8993;SDS011;4532;50.886;4.700;2023-02-15T18:05:23;44.43;;;30.17;;
8993;SDS011;4532;50.886;4.700;2023-02-15T18:08:10;46.53;;;31.37;;
8993;SDS011;4532;50.886;4.700;2023-02-15T18:11:00;45.67;;;29.30;;
8993;SDS011;4532;50.886;4.700;2023-02-15T18:13:51;45.77;;;28.83;;
8993;SDS011;4532;50.886;4.700;2023-02-15T18:16:22;42.40;;;29.43;;
8993;SDS011;4532;50.886;4.700;2023-02-15T18:18:55;42.30;;;29.43;;
8993;SDS011;4532;50.886;4.700;2023-02-15T18:21:28;36.90;;;27.80;;
8993;SDS011;4532;50.886;4.700;2023-02-15T18:23:56;40.33;;;28.03;;
8993;SDS011;4532;50.886;4.700;2023-02-15T18:26:28;40.33;;;29.00;;
8993;SDS011;4532;50.886;4.700;2023-02-15T18:28:57;41.50;;;29.60;;
8993;SDS011;4532;50.886;4.700;2023-02-15T18:31:27;42.67;;;28.87;;
8993;SDS011;4532;50.886;4.700;2023-02-15T18:33:55;42.83;;;29.17;;
8993;SDS011;4532;50.886;4.700;2023-02-15T18:36:26;45.90;;;29.77;;
8993;SDS011;4532;50.886;4.700;2023-02-15T18:42:03;43.00;;;29.83;;
8993;SDS011;4532;50.886;4.700;2023-02-15T18:44:34;40.77;;;28.40;;
8993;SDS011;4532;50.886;4.700;2023-02-15T18:47:03;49.40;;;31.03;;
8993;SDS011;4532;50.886;4.700;2023-02-15T18:49:30;44.20;;;28.90;;
8993;SDS011;4532;50.886;4.700;2023-02-15T18:52:02;47.67;;;30.97;;
8993;SDS011;4532;50.886;4.700;2023-02-15T18:54:30;43.93;;;29.83;;
8993;SDS011;4532;50.886;4.700;2023-02-15T18:56:58;44.67;;;29.97;;
8993;SDS011;4532;50.886;4.700;2023-02-15T18:59:27;46.57;;;31.80;;
8993;SDS011;4532;50.886;4.700;2023-02-15T19:01:58;44.53;;;30.97;;
8993;SDS011;4532;50.886;4.700;2023-02-15T19:04:26;45.23;;;31.43;;
8993;SDS011;4532;50.886;4.700;2023-02-15T19:06:53;48.50;;;32.03;;
8993;SDS011;4532;50.886;4.700;2023-02-15T19:09:25;47.37;;;32.10;;
8993;SDS011;4532;50.886;4.700;2023-02-15T19:11:55;48.63;;;33.07;;
8993;SDS011;4532;50.886;4.700;2023-02-15T19:14:28;48.20;;;33.03;;
8993;SDS011;4532;50.886;4.700;2023-02-15T19:17:01;48.57;;;33.50;;
8993;SDS011;4532;50.886;4.700;2023-02-15T19:19:41;47.93;;;32.20;;
8993;SDS011;4532;50.886;4.700;2023-02-15T19:22:29;47.23;;;32.07;;